首页
METAR-TAF:

METAR-TAF

机场 :

南锡, 法国

纬度: 48-35N, 经度: 005-58E, 海拔: 336米

当前天气观测

该预报发布于33分钟前的06:30 UTC
风速3节,风向多变
温度 -3°C
湿度 93%
气压 1009 hPa
能見度: 0550
冻雾

METAR: LFSO 170630Z AUTO VRB03KT 0600 0550 R20/0500D FZFG VV/// M03/M04 Q1009

时间: 08:03 (07:03 UTC)

预报

该预报发布于17小时和3分钟前的14:00 UTC
预报有效从15日的 15点(UTC)到 16日的 15点(UTC)
风速10节,风向
能见度10公里或以上
多云层高于1700英尺
成为
从 15日的 18点(UTC)到 15日的 20点(UTC)
能见度10公里或以上
1500米以下无云,无积雨云

TAF: LFSO 151400Z 1515/1615 18010KT 9999 BKN017 BECMG 1518/1520 CAVOK

超过4000个机场的气象观测和天气预报(METAR&TAF报告)。

可查询的气象台以黄色和红色小点在地图上表示。

将鼠标移到小点上方,可查看气象台名称。

然后点击查看天气观测和预报。

如需切换地图:点击带黑十字的绿色按钮放大地图;点击带横线的绿色按钮缩小地图;或者点击绿色箭头查看邻近地区的地图。


METAR-TAF: